createdAt,value
2019-02-23T00:01:19.835Z,15.23
2019-02-23T00:03:50.743Z,13.83
2019-02-23T00:06:29.687Z,14.70
2019-02-23T00:08:55.726Z,15.37
2019-02-23T00:11:29.981Z,14.17
2019-02-23T00:14:01.619Z,15.60
2019-02-23T00:16:31.019Z,14.17
2019-02-23T00:19:03.307Z,15.27
2019-02-23T00:21:32.704Z,14.43
2019-02-23T00:24:02.333Z,15.87
2019-02-23T00:26:31.884Z,15.57
2019-02-23T00:29:02.483Z,14.80
2019-02-23T00:31:32.274Z,14.73
2019-02-23T00:34:01.691Z,14.73
2019-02-23T00:36:31.508Z,15.90
2019-02-23T00:39:02.611Z,15.00
2019-02-23T00:41:36.514Z,15.00
2019-02-23T00:44:06.253Z,14.20
2019-02-23T00:46:37.623Z,14.33
2019-02-23T00:49:07.076Z,16.67
2019-02-23T00:51:36.848Z,13.87
2019-02-23T00:54:06.452Z,12.83
2019-02-23T00:56:36.819Z,15.10
2019-02-23T00:59:07.634Z,14.03
2019-02-23T01:01:38.842Z,14.23
2019-02-23T01:04:11.399Z,13.90
2019-02-23T01:06:40.643Z,13.60
2019-02-23T01:09:10.137Z,16.13
2019-02-23T01:11:39.522Z,15.33
2019-02-23T01:14:08.890Z,13.87
2019-02-23T01:16:40.590Z,16.03
2019-02-23T01:19:13.219Z,14.47
2019-02-23T01:21:43.209Z,13.73
2019-02-23T01:24:12.620Z,15.30
2019-02-23T01:26:45.342Z,14.57
2019-02-23T01:29:15.165Z,15.57
2019-02-23T01:31:45.119Z,15.37
2019-02-23T01:34:14.961Z,15.73
2019-02-23T01:36:44.346Z,14.87
2019-02-23T01:39:13.678Z,14.73
2019-02-23T01:41:43.154Z,14.40
2019-02-23T01:44:12.516Z,15.20
2019-02-23T01:46:41.870Z,14.83
2019-02-23T01:49:11.297Z,15.57
2019-02-23T01:51:41.001Z,14.90
2019-02-23T01:54:10.378Z,13.67
2019-02-23T01:56:40.029Z,14.33
2019-02-23T01:59:09.471Z,14.47
2019-02-23T02:01:38.895Z,15.07
2019-02-23T02:04:08.308Z,15.40
2019-02-23T02:06:37.711Z,14.93
2019-02-23T02:09:07.234Z,15.87
2019-02-23T02:11:36.639Z,15.30
2019-02-23T02:14:06.121Z,16.30
2019-02-23T02:16:35.455Z,14.90
2019-02-23T02:19:04.872Z,14.63
2019-02-23T02:21:34.228Z,13.87
2019-02-23T02:24:03.568Z,15.10
2019-02-23T02:26:32.971Z,13.87
2019-02-23T02:29:02.350Z,12.73
2019-02-23T02:31:31.766Z,13.60
2019-02-23T02:34:09.017Z,13.90
2019-02-23T02:36:38.369Z,12.30
2019-02-23T02:39:10.632Z,15.10
2019-02-23T02:41:39.900Z,13.97
2019-02-23T02:44:09.269Z,16.80
2019-02-23T02:46:38.699Z,13.60
2019-02-23T02:49:08.106Z,14.57
2019-02-23T02:51:37.662Z,14.93
2019-02-23T02:54:07.116Z,15.67
2019-02-23T02:56:36.549Z,15.57
2019-02-23T02:59:06.546Z,13.40
2019-02-23T03:01:35.939Z,15.73
2019-02-23T03:04:05.281Z,14.63
2019-02-23T03:06:34.741Z,15.63
2019-02-23T03:09:06.045Z,13.60
2019-02-23T03:11:35.442Z,16.20
2019-02-23T03:14:04.820Z,13.93
2019-02-23T03:16:34.221Z,14.90
2019-02-23T03:19:03.602Z,14.60
2019-02-23T03:21:32.967Z,13.40
2019-02-23T03:24:02.413Z,14.60
2019-02-23T03:26:31.769Z,15.27
2019-02-23T03:29:01.174Z,12.37
2019-02-23T03:31:30.627Z,14.60
2019-02-23T03:34:00.019Z,13.00
2019-02-23T03:36:29.470Z,15.30
2019-02-23T03:38:58.777Z,14.53
2019-02-23T03:41:28.758Z,13.87
2019-02-23T03:43:58.111Z,17.57
2019-02-23T03:46:27.500Z,15.50
2019-02-23T03:48:56.903Z,14.07
2019-02-23T03:51:26.344Z,13.80
2019-02-23T03:53:55.799Z,13.67
2019-02-23T03:56:25.242Z,14.27
2019-02-23T03:58:54.687Z,13.43
2019-02-23T04:01:24.101Z,13.47
2019-02-23T04:03:53.502Z,13.27
2019-02-23T04:06:22.959Z,12.70
2019-02-23T04:08:52.305Z,14.00
2019-02-23T04:11:22.143Z,14.33
2019-02-23T04:13:51.796Z,14.20
2019-02-23T04:16:21.201Z,13.37
2019-02-23T04:18:50.556Z,13.43
2019-02-23T04:21:19.988Z,13.23
2019-02-23T04:23:49.398Z,14.20
2019-02-23T04:26:18.807Z,14.13
2019-02-23T04:28:48.211Z,13.70
2019-02-23T04:31:17.533Z,13.00
2019-02-23T04:33:46.875Z,12.23
2019-02-23T04:36:16.233Z,13.67
2019-02-23T04:38:45.990Z,13.10
2019-02-23T04:41:15.355Z,14.23
2019-02-23T04:43:44.862Z,12.77
2019-02-23T04:46:14.241Z,14.30
2019-02-23T04:48:43.622Z,12.70
2019-02-23T04:51:14.611Z,11.53
2019-02-23T04:53:44.319Z,12.00
2019-02-23T04:56:13.678Z,13.53
2019-02-23T04:58:43.112Z,13.47
2019-02-23T05:01:12.462Z,13.30
2019-02-23T05:03:41.830Z,13.40
2019-02-23T05:06:11.208Z,15.50
2019-02-23T05:08:40.582Z,13.50
2019-02-23T05:11:10.019Z,13.80
2019-02-23T05:13:39.374Z,14.70
2019-02-23T05:16:08.777Z,12.57
2019-02-23T05:18:38.122Z,12.83
2019-02-23T05:21:07.596Z,13.57
2019-02-23T05:23:37.060Z,11.53
2019-02-23T05:26:06.422Z,10.93
2019-02-23T05:28:35.722Z,12.70
2019-02-23T05:31:05.234Z,13.03
2019-02-23T05:33:34.691Z,13.03
2019-02-23T05:36:04.045Z,11.67
2019-02-23T05:38:33.437Z,10.03
2019-02-23T05:41:02.820Z,12.00
2019-02-23T05:43:33.363Z,11.10
2019-02-23T05:46:02.737Z,10.10
2019-02-23T05:48:32.202Z,11.03
2019-02-23T05:51:01.626Z,13.00
2019-02-23T05:53:31.090Z,12.67
2019-02-23T05:56:00.603Z,11.83
2019-02-23T05:58:30.238Z,13.20
2019-02-23T06:00:59.696Z,10.90
2019-02-23T06:03:29.239Z,12.57
2019-02-23T06:05:58.671Z,12.10
2019-02-23T06:08:28.085Z,12.27
2019-02-23T06:10:57.459Z,11.83
2019-02-23T06:13:27.955Z,14.27
2019-02-23T06:15:57.622Z,15.00
2019-02-23T06:18:27.036Z,14.23
2019-02-23T06:20:56.488Z,13.63
2019-02-23T06:23:26.091Z,13.70
2019-02-23T06:25:55.581Z,12.10
2019-02-23T06:28:25.462Z,13.87
2019-02-23T06:30:54.759Z,12.73
2019-02-23T06:33:24.232Z,13.10
2019-02-23T06:35:53.610Z,12.47
2019-02-23T06:38:23.024Z,11.90
2019-02-23T06:40:52.513Z,13.37
2019-02-23T06:43:22.063Z,11.83
2019-02-23T06:45:51.653Z,12.57
2019-02-23T06:48:21.055Z,12.17
2019-02-23T06:50:50.454Z,11.63
2019-02-23T06:53:19.833Z,13.10
2019-02-23T06:55:49.185Z,12.60
2019-02-23T06:58:18.666Z,11.40
2019-02-23T07:00:48.042Z,10.17
2019-02-23T07:03:17.450Z,11.73
2019-02-23T07:05:46.779Z,12.10
2019-02-23T07:08:16.175Z,12.20
2019-02-23T07:10:45.487Z,11.57
2019-02-23T07:13:15.407Z,14.10
2019-02-23T07:15:45.062Z,11.70
2019-02-23T07:18:14.587Z,11.57
2019-02-23T07:20:44.702Z,12.60
2019-02-23T07:23:14.494Z,12.47
2019-02-23T07:25:43.888Z,12.73
2019-02-23T07:28:13.241Z,13.00
2019-02-23T07:30:42.625Z,14.07
2019-02-23T07:33:12.007Z,16.77
2019-02-23T07:35:41.460Z,14.27
2019-02-23T07:38:10.859Z,16.63
2019-02-23T07:40:40.320Z,17.70
2019-02-23T07:43:09.768Z,16.83
2019-02-23T07:45:39.263Z,17.40
2019-02-23T07:48:08.656Z,16.00
2019-02-23T07:50:38.308Z,16.57
2019-02-23T07:53:07.749Z,17.43
2019-02-23T07:55:37.213Z,20.30
2019-02-23T07:58:06.559Z,16.03
2019-02-23T08:00:36.095Z,17.27
2019-02-23T08:03:05.710Z,17.93
2019-02-23T08:05:35.126Z,15.83
2019-02-23T08:08:04.537Z,16.53
2019-02-23T08:10:34.361Z,15.43
2019-02-23T08:13:04.551Z,16.60
2019-02-23T08:15:34.037Z,16.73
2019-02-23T08:18:03.483Z,15.60
2019-02-23T08:20:33.324Z,15.30
2019-02-23T08:23:02.767Z,16.40
2019-02-23T08:25:32.215Z,16.93
2019-02-23T08:28:01.685Z,16.10
2019-02-23T08:30:31.160Z,16.67
2019-02-23T08:33:00.769Z,17.30
2019-02-23T08:35:30.376Z,16.47
2019-02-23T08:38:00.092Z,16.07
2019-02-23T08:40:29.513Z,16.13
2019-02-23T08:43:00.647Z,17.90
2019-02-23T08:45:31.309Z,13.87
2019-02-23T08:48:00.736Z,15.33
2019-02-23T08:50:30.834Z,13.37
2019-02-23T08:53:00.551Z,14.17
2019-02-23T08:55:29.996Z,14.93
2019-02-23T08:57:59.533Z,15.70
2019-02-23T09:00:29.643Z,15.27
2019-02-23T09:03:02.151Z,14.90
2019-02-23T09:05:32.208Z,14.60
2019-02-23T09:08:03.406Z,14.63
2019-02-23T09:10:34.289Z,15.80
2019-02-23T09:13:03.747Z,14.80
2019-02-23T09:15:33.266Z,16.03
2019-02-23T09:18:02.948Z,16.60
2019-02-23T09:20:32.387Z,15.90
2019-02-23T09:23:02.227Z,14.67
2019-02-23T09:25:32.168Z,13.97
2019-02-23T09:28:02.546Z,14.53
2019-02-23T09:30:32.032Z,15.43
2019-02-23T09:33:02.765Z,13.07
2019-02-23T09:35:32.364Z,14.30
2019-02-23T09:38:03.125Z,14.53
2019-02-23T09:40:32.563Z,13.50
2019-02-23T09:43:02.603Z,14.27
2019-02-23T09:45:32.166Z,13.90
2019-02-23T09:48:03.732Z,14.67
2019-02-23T09:50:33.311Z,13.90
2019-02-23T09:53:10.763Z,15.60
2019-02-23T09:55:36.052Z,13.30
2019-02-23T09:58:05.919Z,13.40
2019-02-23T10:00:35.293Z,12.63
2019-02-23T10:03:05.022Z,11.97
2019-02-23T10:05:34.458Z,13.97
2019-02-23T10:08:04.459Z,10.93
2019-02-23T10:10:33.903Z,10.73
2019-02-23T10:13:03.723Z,9.80
2019-02-23T10:15:33.164Z,9.20
2019-02-23T10:18:03.126Z,8.50
2019-02-23T10:20:32.591Z,10.33
2019-02-23T10:23:02.959Z,9.47
2019-02-23T10:25:32.458Z,11.70
2019-02-23T10:28:03.229Z,12.10
2019-02-23T10:30:32.726Z,11.73
2019-02-23T10:33:02.409Z,12.30
2019-02-23T10:35:32.119Z,12.50
2019-02-23T10:38:01.578Z,10.93
2019-02-23T10:40:31.602Z,12.47
2019-02-23T10:43:01.053Z,12.80
2019-02-23T10:45:30.478Z,12.50
2019-02-23T10:47:59.972Z,11.60
2019-02-23T10:50:29.451Z,11.80
2019-02-23T10:52:58.875Z,12.47
2019-02-23T10:55:28.359Z,12.87
2019-02-23T10:57:57.868Z,13.87
2019-02-23T11:00:27.375Z,11.07
2019-02-23T11:02:56.827Z,13.83
2019-02-23T11:05:26.521Z,11.80
2019-02-23T11:07:56.088Z,12.37
2019-02-23T11:10:25.772Z,12.90
2019-02-23T11:12:55.622Z,11.53
2019-02-23T11:15:25.704Z,11.40
2019-02-23T11:17:55.258Z,9.53
2019-02-23T11:20:25.044Z,9.30
2019-02-23T11:22:55.729Z,7.80
2019-02-23T11:25:25.136Z,8.47
2019-02-23T11:27:54.925Z,8.53
2019-02-23T11:30:24.325Z,6.17
2019-02-23T11:32:53.751Z,6.73
2019-02-23T11:35:23.163Z,6.30
2019-02-23T11:37:52.598Z,5.13
2019-02-23T11:40:23.556Z,6.00
2019-02-23T11:42:53.306Z,5.83
2019-02-23T11:45:24.169Z,7.33
2019-02-23T11:47:53.645Z,6.20
2019-02-23T11:50:23.046Z,6.10
2019-02-23T11:52:52.544Z,6.00
2019-02-23T11:55:22.021Z,5.80
2019-02-23T11:57:51.587Z,6.77
2019-02-23T12:00:21.850Z,5.50
2019-02-23T12:02:52.791Z,5.47
2019-02-23T12:05:22.466Z,4.73
2019-02-23T12:07:54.144Z,6.93
2019-02-23T12:10:23.791Z,5.97
2019-02-23T12:12:53.321Z,5.97
2019-02-23T12:15:22.747Z,5.70
2019-02-23T12:17:52.312Z,5.00
2019-02-23T12:20:21.860Z,6.20
2019-02-23T12:22:51.431Z,5.10
2019-02-23T12:25:20.988Z,5.10
2019-02-23T12:27:50.463Z,5.70
2019-02-23T12:30:19.886Z,5.50
2019-02-23T12:32:49.336Z,4.50
2019-02-23T12:35:18.851Z,4.97
2019-02-23T12:37:48.292Z,5.50
2019-02-23T12:40:17.744Z,5.87
2019-02-23T12:42:47.261Z,4.97
2019-02-23T12:45:16.761Z,5.60
2019-02-23T12:47:46.248Z,5.33
2019-02-23T12:50:15.747Z,5.30
2019-02-23T12:52:45.173Z,5.03
2019-02-23T12:55:14.799Z,4.97
2019-02-23T12:57:44.473Z,4.90
2019-02-23T13:00:14.166Z,4.47
2019-02-23T13:02:43.722Z,6.53
2019-02-23T13:05:13.878Z,5.60
2019-02-23T13:07:43.316Z,4.10
2019-02-23T13:10:13.481Z,5.50
2019-02-23T13:12:55.732Z,5.20
2019-02-23T13:15:54.880Z,5.17
2019-02-23T13:18:52.482Z,5.30
2019-02-23T13:22:02.769Z,5.10
2019-02-23T13:24:57.228Z,5.20
2019-02-23T13:28:06.182Z,5.10
2019-02-23T13:30:55.731Z,4.60
2019-02-23T13:34:09.371Z,5.30
2019-02-23T13:37:16.643Z,4.83
2019-02-23T13:40:30.441Z,5.93
2019-02-23T13:43:54.616Z,4.80
2019-02-23T13:46:52.947Z,5.67
2019-02-23T13:49:43.204Z,5.90
2019-02-23T13:53:01.622Z,4.90
2019-02-23T13:56:03.664Z,5.30
2019-02-23T13:58:47.745Z,5.97
2019-02-23T14:01:58.970Z,5.90
2019-02-23T14:05:21.577Z,5.50
2019-02-23T14:08:15.066Z,6.20
2019-02-23T14:11:08.539Z,5.60
2019-02-23T14:14:18.976Z,5.80
2019-02-23T14:17:05.598Z,6.13
2019-02-23T14:20:16.762Z,5.93
2019-02-23T14:23:06.187Z,6.30
2019-02-23T14:26:17.697Z,6.73
2019-02-23T14:29:37.216Z,6.57
2019-02-23T14:32:49.177Z,5.83
2019-02-23T14:36:04.175Z,7.90
2019-02-23T14:39:09.305Z,6.23
2019-02-23T14:42:06.844Z,6.77
2019-02-23T14:45:07.775Z,6.57
2019-02-23T14:48:20.123Z,6.50
2019-02-23T14:51:25.842Z,7.00
2019-02-23T14:54:32.123Z,6.50
2019-02-23T14:57:25.832Z,6.67
2019-02-23T15:00:04.342Z,7.00
2019-02-23T15:03:01.039Z,5.73
2019-02-23T15:06:11.814Z,5.40
2019-02-23T15:08:48.344Z,6.87
2019-02-23T15:11:55.669Z,6.80
2019-02-23T15:15:16.816Z,6.67
2019-02-23T15:18:24.431Z,6.50
2019-02-23T15:21:22.365Z,6.70
2019-02-23T15:24:31.935Z,6.67
2019-02-23T15:27:39.772Z,7.10
2019-02-23T15:31:02.161Z,6.90
2019-02-23T15:33:57.927Z,6.73
2019-02-23T15:36:46.977Z,10.47
2019-02-23T15:39:59.444Z,8.53
2019-02-23T15:43:18.810Z,6.70
2019-02-23T15:46:08.864Z,7.83
2019-02-23T15:49:17.285Z,7.47
2019-02-23T15:51:46.858Z,6.67
2019-02-23T15:54:16.358Z,7.50
2019-02-23T15:56:45.926Z,6.40
2019-02-23T15:59:15.475Z,7.80
2019-02-23T16:01:44.978Z,7.17
2019-02-23T16:04:14.574Z,7.27
2019-02-23T16:06:44.156Z,7.20
2019-02-23T16:09:14.195Z,6.53
2019-02-23T16:11:45.253Z,7.03
2019-02-23T16:14:15.100Z,5.47
2019-02-23T16:16:47.260Z,5.57
2019-02-23T16:19:15.872Z,7.20
2019-02-23T16:21:45.755Z,7.10
2019-02-23T16:24:15.314Z,5.53
2019-02-23T16:26:44.928Z,6.63
2019-02-23T16:29:14.409Z,6.40
2019-02-23T16:31:43.940Z,6.50
2019-02-23T16:34:13.492Z,6.60
2019-02-23T16:36:42.947Z,6.23
2019-02-23T16:39:13.560Z,6.60
2019-02-23T16:41:43.153Z,6.50
2019-02-23T16:44:12.567Z,6.07
2019-02-23T16:46:42.197Z,7.70
2019-02-23T16:49:12.822Z,6.87
2019-02-23T16:51:42.344Z,6.00
2019-02-23T16:54:12.305Z,7.00
2019-02-23T16:56:41.832Z,7.17
2019-02-23T16:59:12.979Z,6.57
2019-02-23T17:01:42.778Z,6.97
2019-02-23T17:04:12.394Z,6.90
2019-02-23T17:06:42.999Z,7.23
2019-02-23T17:09:12.489Z,7.23
2019-02-23T17:11:42.280Z,7.17
2019-02-23T17:14:12.180Z,8.13
2019-02-23T17:16:41.659Z,7.93
2019-02-23T17:19:11.288Z,7.20
2019-02-23T17:21:40.847Z,7.80
2019-02-23T17:24:10.431Z,7.40
2019-02-23T17:26:39.867Z,7.37
2019-02-23T17:29:09.288Z,7.33
2019-02-23T17:31:38.863Z,6.87
2019-02-23T17:34:08.358Z,8.50
2019-02-23T17:36:38.076Z,8.27
2019-02-23T17:39:08.891Z,8.77
2019-02-23T17:41:38.446Z,8.37
2019-02-23T17:44:07.982Z,9.10
2019-02-23T17:46:38.621Z,7.73
2019-02-23T17:49:08.269Z,7.87
2019-02-23T17:51:38.196Z,8.33
2019-02-23T17:54:07.860Z,8.53
2019-02-23T17:56:37.502Z,8.20
2019-02-23T17:59:07.141Z,8.17
2019-02-23T18:01:36.956Z,8.37
2019-02-23T18:04:06.563Z,9.50
2019-02-23T18:06:38.300Z,8.30
2019-02-23T18:09:07.733Z,7.33
2019-02-23T18:11:37.309Z,7.60
2019-02-23T18:14:06.931Z,7.80
2019-02-23T18:16:38.623Z,8.30
2019-02-23T18:19:09.509Z,8.47
2019-02-23T18:21:41.489Z,7.60
2019-02-23T18:24:11.579Z,8.93
2019-02-23T18:26:41.074Z,8.80
2019-02-23T18:29:10.683Z,8.93
2019-02-23T18:31:40.172Z,9.47
2019-02-23T18:34:09.796Z,10.60
2019-02-23T18:36:45.821Z,8.60
2019-02-23T18:39:17.421Z,9.93
2019-02-23T18:41:46.935Z,10.47
2019-02-23T18:44:23.969Z,9.27
2019-02-23T18:46:55.007Z,10.00
2019-02-23T18:49:28.611Z,9.80
2019-02-23T18:51:59.485Z,8.67
2019-02-23T18:54:29.373Z,9.60
2019-02-23T18:56:59.732Z,8.63
2019-02-23T18:59:30.940Z,8.47
2019-02-23T19:02:00.493Z,9.43
2019-02-23T19:04:30.075Z,9.67
2019-02-23T19:07:04.616Z,8.57
2019-02-23T19:09:37.803Z,7.60
2019-02-23T19:12:11.257Z,9.43
2019-02-23T19:14:45.888Z,9.30
2019-02-23T19:17:16.965Z,9.83
2019-02-23T19:19:49.512Z,11.17
2019-02-23T19:22:27.908Z,10.93
2019-02-23T19:24:58.559Z,11.70
2019-02-23T19:27:30.214Z,11.57
2019-02-23T19:30:00.899Z,10.20
2019-02-23T19:32:35.683Z,11.50
2019-02-23T19:35:07.349Z,10.83
2019-02-23T19:37:38.771Z,11.77
2019-02-23T19:40:08.590Z,12.53
2019-02-23T19:42:41.939Z,11.23
2019-02-23T19:45:11.659Z,10.90
2019-02-23T19:47:42.927Z,10.60
2019-02-23T19:50:21.190Z,9.97
2019-02-23T19:52:51.141Z,10.43
2019-02-23T19:55:22.489Z,11.50
2019-02-23T19:57:57.652Z,11.23
2019-02-23T20:00:33.661Z,11.93
2019-02-23T20:03:05.043Z,10.23
2019-02-23T20:05:40.162Z,12.40
2019-02-23T20:08:14.377Z,11.80
2019-02-23T20:10:46.080Z,12.57
2019-02-23T20:13:18.105Z,12.70
2019-02-23T20:15:47.972Z,11.80
2019-02-23T20:18:19.444Z,12.67
2019-02-23T20:20:50.977Z,11.87
2019-02-23T20:23:22.658Z,11.77
2019-02-23T20:25:53.595Z,11.20
2019-02-23T20:28:23.337Z,10.57
2019-02-23T20:30:53.224Z,10.30
2019-02-23T20:33:24.932Z,12.00
2019-02-23T20:35:58.208Z,11.20
2019-02-23T20:38:35.482Z,9.70
2019-02-23T20:41:06.168Z,11.40
2019-02-23T20:43:38.068Z,11.50
2019-02-23T20:46:10.383Z,11.57
2019-02-23T20:48:41.690Z,10.60
2019-02-23T20:51:21.375Z,11.70
2019-02-23T20:53:50.978Z,11.37
2019-02-23T20:56:23.025Z,10.07
2019-02-23T20:58:53.460Z,11.50
2019-02-23T21:01:23.257Z,10.97
2019-02-23T21:03:52.990Z,12.50
2019-02-23T21:06:29.307Z,12.83
2019-02-23T21:09:01.149Z,10.70
2019-02-23T21:11:30.929Z,11.47
2019-02-23T21:14:01.737Z,11.53
2019-02-23T21:16:31.783Z,12.13
2019-02-23T21:19:07.309Z,15.33
2019-02-23T21:21:38.963Z,10.93
2019-02-23T21:24:10.497Z,12.70
2019-02-23T21:26:40.258Z,11.67
2019-02-23T21:29:09.803Z,11.83
2019-02-23T21:31:41.655Z,12.27
2019-02-23T21:34:13.486Z,11.50
2019-02-23T21:36:43.130Z,14.40
2019-02-23T21:39:12.669Z,12.50
2019-02-23T21:41:43.038Z,15.80
2019-02-23T21:44:16.356Z,12.53
2019-02-23T21:46:46.038Z,15.07
2019-02-23T21:49:15.611Z,13.90
2019-02-23T21:51:46.394Z,13.67
2019-02-23T21:54:15.805Z,13.57
2019-02-23T21:56:50.282Z,14.27
2019-02-23T21:59:22.948Z,12.50
2019-02-23T22:01:55.753Z,13.70
2019-02-23T22:04:25.324Z,12.07
2019-02-23T22:06:57.208Z,12.17
2019-02-23T22:09:31.405Z,19.37
2019-02-23T22:12:05.569Z,12.70
2019-02-23T22:14:36.662Z,13.13
2019-02-23T22:17:06.510Z,12.60
2019-02-23T22:19:36.584Z,11.43
2019-02-23T22:22:12.928Z,10.93
2019-02-23T22:24:43.913Z,9.13
2019-02-23T22:27:13.920Z,8.37
2019-02-23T22:29:44.540Z,8.10
2019-02-23T22:32:15.465Z,8.87
2019-02-23T22:34:55.333Z,9.20
2019-02-23T22:37:26.777Z,11.40
2019-02-23T22:40:00.683Z,11.43
2019-02-23T22:42:31.397Z,12.57
2019-02-23T22:45:02.319Z,11.60
2019-02-23T22:47:34.989Z,12.27
2019-02-23T22:50:09.355Z,11.80
2019-02-23T22:52:41.268Z,11.43
2019-02-23T22:55:11.299Z,9.07
2019-02-23T22:57:41.206Z,11.10
2019-02-23T23:00:17.713Z,12.67
2019-02-23T23:02:51.470Z,11.00
2019-02-23T23:05:21.001Z,12.37
2019-02-23T23:07:55.299Z,11.13
2019-02-23T23:10:23.916Z,14.17
2019-02-23T23:12:53.921Z,10.73
2019-02-23T23:15:27.326Z,11.40
2019-02-23T23:17:59.858Z,11.00
2019-02-23T23:20:30.455Z,10.43
2019-02-23T23:23:01.681Z,11.10
2019-02-23T23:25:33.710Z,11.20
2019-02-23T23:28:03.311Z,11.50
2019-02-23T23:30:32.907Z,12.87
2019-02-23T23:33:02.320Z,10.70
2019-02-23T23:35:31.769Z,11.57
2019-02-23T23:38:02.121Z,9.20
2019-02-23T23:40:34.260Z,9.30
2019-02-23T23:43:04.852Z,8.23
2019-02-23T23:45:36.979Z,8.73
2019-02-23T23:48:07.741Z,9.47
2019-02-23T23:50:38.441Z,8.47
2019-02-23T23:53:07.919Z,7.70
2019-02-23T23:55:37.494Z,10.20
2019-02-23T23:58:07.867Z,12.03
